createdAt,value
2022-12-25T00:00:34.039Z,7.30
2022-12-25T00:05:58.857Z,7.00
2022-12-25T00:11:04.964Z,16.10
2022-12-25T00:16:10.324Z,21.80
2022-12-25T00:21:14.312Z,14.10
2022-12-25T00:26:17.825Z,10.20
2022-12-25T00:31:21.398Z,7.80
2022-12-25T00:36:24.538Z,8.30
2022-12-25T00:41:46.263Z,14.60
2022-12-25T00:46:49.090Z,10.70
2022-12-25T00:51:52.789Z,7.40
2022-12-25T00:56:55.537Z,7.20
2022-12-25T01:02:18.674Z,13.00
2022-12-25T01:07:23.907Z,11.10
2022-12-25T01:12:26.748Z,10.90
2022-12-25T01:17:29.484Z,12.50
2022-12-25T01:22:32.176Z,10.40
2022-12-25T01:27:35.468Z,9.10
2022-12-25T01:32:38.503Z,10.40
2022-12-25T01:37:41.306Z,9.60
2022-12-25T01:42:44.501Z,8.60
2022-12-25T01:47:47.505Z,8.40
2022-12-25T01:52:51.719Z,8.40
2022-12-25T01:57:54.815Z,8.30
2022-12-25T02:02:58.674Z,7.80
2022-12-25T02:08:07.935Z,8.50
2022-12-25T02:13:17.055Z,7.60
2022-12-25T02:18:32.929Z,6.80
2022-12-25T02:23:51.052Z,6.50
2022-12-25T02:29:01.951Z,6.00
2022-12-25T02:34:17.530Z,7.10
2022-12-25T02:39:45.279Z,7.20
2022-12-25T02:45:10.135Z,6.50
2022-12-25T02:50:34.581Z,7.90
2022-12-25T02:56:02.047Z,8.90
2022-12-25T03:01:29.290Z,6.80
2022-12-25T03:06:43.954Z,6.80
2022-12-25T03:11:54.771Z,7.70
2022-12-25T03:16:59.861Z,6.90
2022-12-25T03:22:23.698Z,6.10
2022-12-25T03:27:31.797Z,6.70
2022-12-25T03:32:37.527Z,6.70
2022-12-25T03:38:08.070Z,5.70
2022-12-25T03:43:55.659Z,5.70
2022-12-25T03:49:26.250Z,6.10
2022-12-25T03:54:52.120Z,6.00
2022-12-25T04:00:13.572Z,6.10
2022-12-25T04:05:34.912Z,6.30
2022-12-25T04:10:56.167Z,6.70
2022-12-25T04:16:17.364Z,6.50
2022-12-25T04:21:38.923Z,10.30
2022-12-25T04:27:00.443Z,9.50
2022-12-25T04:32:21.992Z,6.70
2022-12-25T04:37:24.727Z,6.60
2022-12-25T04:42:27.459Z,7.40
2022-12-25T04:47:30.204Z,7.00
2022-12-25T04:52:37.692Z,7.00
2022-12-25T04:57:40.471Z,7.00
2022-12-25T05:02:43.388Z,8.20
2022-12-25T05:07:46.414Z,8.40
2022-12-25T05:12:49.178Z,7.40
2022-12-25T05:17:51.938Z,7.90
2022-12-25T05:22:54.686Z,6.80
2022-12-25T05:27:57.496Z,7.20
2022-12-25T05:33:00.558Z,8.20
2022-12-25T05:38:03.980Z,7.90
2022-12-25T05:43:07.030Z,7.60
2022-12-25T05:48:09.942Z,7.50
2022-12-25T05:53:14.778Z,7.00
2022-12-25T05:58:17.538Z,8.30
2022-12-25T06:03:20.347Z,7.90
2022-12-25T06:08:23.211Z,7.80
2022-12-25T06:13:25.938Z,7.30
2022-12-25T06:18:28.699Z,8.50
2022-12-25T06:23:31.723Z,8.60
2022-12-25T06:28:34.986Z,7.90
2022-12-25T06:33:38.407Z,11.00
2022-12-25T06:38:41.809Z,9.00
2022-12-25T06:43:49.342Z,12.50
2022-12-25T06:48:53.688Z,11.80
2022-12-25T06:53:57.441Z,12.50
2022-12-25T06:59:09.159Z,11.60
2022-12-25T07:04:21.250Z,11.40
2022-12-25T07:09:24.202Z,11.10
2022-12-25T07:14:26.938Z,11.20
2022-12-25T07:19:29.704Z,13.80
2022-12-25T07:24:32.504Z,12.40
2022-12-25T07:29:35.278Z,13.10
2022-12-25T07:34:38.021Z,15.00
2022-12-25T07:39:40.837Z,20.10
2022-12-25T07:44:43.931Z,17.00
2022-12-25T07:49:46.722Z,29.30
2022-12-25T07:54:49.477Z,34.30
2022-12-25T07:59:52.241Z,22.40
2022-12-25T08:04:55.440Z,14.30
2022-12-25T08:09:58.178Z,14.40
2022-12-25T08:15:00.927Z,12.70
2022-12-25T08:20:04.140Z,12.40
2022-12-25T08:25:07.288Z,13.20
2022-12-25T08:30:10.316Z,14.80
2022-12-25T08:35:13.284Z,13.10
2022-12-25T08:40:16.182Z,12.50
2022-12-25T08:45:18.977Z,11.50
2022-12-25T08:50:25.704Z,12.80
2022-12-25T08:55:28.603Z,14.20
2022-12-25T09:00:31.873Z,24.60
2022-12-25T09:05:36.332Z,30.90
2022-12-25T09:10:39.075Z,18.50
2022-12-25T09:15:42.022Z,20.10
2022-12-25T09:20:44.804Z,16.50
2022-12-25T09:25:47.578Z,18.60
2022-12-25T09:30:52.298Z,12.90
2022-12-25T09:35:58.099Z,11.50
2022-12-25T09:41:22.957Z,10.90
2022-12-25T09:46:34.796Z,10.60
2022-12-25T09:51:42.303Z,10.80
2022-12-25T09:56:45.074Z,9.50
2022-12-25T10:02:11.985Z,8.60
2022-12-25T10:07:48.639Z,9.70
2022-12-25T10:13:01.006Z,7.90
2022-12-25T10:18:31.291Z,9.30
2022-12-25T10:23:41.061Z,17.80
2022-12-25T10:28:47.070Z,15.50
2022-12-25T10:33:52.850Z,7.40
2022-12-25T10:38:56.403Z,8.50
2022-12-25T10:43:59.260Z,17.10
2022-12-25T10:49:03.932Z,14.00
2022-12-25T10:54:35.201Z,18.70
2022-12-25T10:59:44.310Z,17.80
2022-12-25T11:04:48.136Z,12.20
2022-12-25T11:10:05.614Z,15.40
2022-12-25T11:15:37.242Z,12.90
2022-12-25T11:20:49.652Z,9.10
2022-12-25T11:26:07.285Z,11.30
2022-12-25T11:31:15.467Z,10.60
2022-12-25T11:36:26.813Z,16.70
2022-12-25T11:41:34.422Z,15.80
2022-12-25T11:46:48.679Z,10.90
2022-12-25T11:51:55.654Z,10.50
2022-12-25T11:57:03.530Z,9.30
2022-12-25T12:02:23.153Z,11.90
2022-12-25T12:07:32.278Z,12.90
2022-12-25T12:12:49.232Z,17.70
2022-12-25T12:17:53.270Z,15.00
2022-12-25T12:22:56.844Z,17.90
2022-12-25T12:28:05.644Z,13.60
2022-12-25T12:33:20.742Z,13.50
2022-12-25T12:38:24.966Z,10.30
2022-12-25T12:43:34.401Z,13.10
2022-12-25T12:48:41.413Z,10.50
2022-12-25T12:53:44.822Z,9.30
2022-12-25T12:58:50.981Z,11.10
2022-12-25T13:03:59.745Z,12.70
2022-12-25T13:09:33.655Z,11.50
2022-12-25T13:14:38.115Z,12.60
2022-12-25T13:19:43.029Z,22.60
2022-12-25T13:24:56.275Z,20.90
2022-12-25T13:29:59.617Z,20.00
2022-12-25T13:35:02.502Z,18.90
2022-12-25T13:40:26.159Z,18.70
2022-12-25T13:45:31.002Z,17.80
2022-12-25T13:50:35.173Z,17.70
2022-12-25T13:55:38.097Z,16.50
2022-12-25T14:00:48.113Z,16.10
2022-12-25T14:06:01.760Z,17.40
2022-12-25T14:11:06.567Z,21.30
2022-12-25T14:16:10.310Z,24.90
2022-12-25T14:21:22.899Z,19.00
2022-12-25T14:26:29.594Z,13.10
2022-12-25T14:31:34.301Z,11.90
2022-12-25T14:36:37.953Z,21.90
2022-12-25T14:41:42.290Z,24.00
2022-12-25T14:46:45.150Z,21.10
2022-12-25T14:51:48.032Z,29.90
2022-12-25T14:56:55.943Z,21.50
2022-12-25T15:02:03.560Z,27.00
2022-12-25T15:07:09.683Z,21.00
2022-12-25T15:12:13.143Z,19.40
2022-12-25T15:17:36.655Z,19.20
2022-12-25T15:23:10.168Z,26.40
2022-12-25T15:28:05.609Z,20.40
2022-12-25T15:33:14.547Z,13.80
2022-12-25T15:38:17.351Z,14.80
2022-12-25T15:43:40.083Z,14.30
2022-12-25T15:48:42.931Z,12.70
2022-12-25T15:53:45.697Z,13.10
2022-12-25T15:58:48.515Z,13.50
2022-12-25T16:03:51.729Z,14.30
2022-12-25T16:08:54.548Z,13.40
2022-12-25T16:13:57.274Z,17.30
2022-12-25T16:19:00.270Z,13.70
2022-12-25T16:24:03.172Z,17.20
2022-12-25T16:29:07.932Z,17.20
2022-12-25T16:34:11.418Z,18.20
2022-12-25T16:39:14.152Z,18.80
2022-12-25T16:44:16.932Z,25.90
2022-12-25T16:49:19.848Z,29.10
2022-12-25T16:54:22.663Z,25.20
2022-12-25T16:59:25.442Z,17.10
2022-12-25T17:04:28.354Z,19.10
2022-12-25T17:09:31.577Z,28.10
2022-12-25T17:14:35.886Z,37.40
2022-12-25T17:19:38.860Z,28.10
2022-12-25T17:24:41.664Z,22.50
2022-12-25T17:29:45.470Z,24.30
2022-12-25T17:34:48.286Z,19.10
2022-12-25T17:39:50.981Z,28.30
2022-12-25T17:44:53.939Z,37.20
2022-12-25T17:49:56.813Z,26.00
2022-12-25T17:54:59.598Z,27.10
2022-12-25T18:00:02.437Z,27.80
2022-12-25T18:05:05.685Z,25.60
2022-12-25T18:10:10.477Z,22.00
2022-12-25T18:15:13.288Z,23.00
2022-12-25T18:20:16.098Z,19.40
2022-12-25T18:25:18.954Z,20.00
2022-12-25T18:30:21.742Z,18.10
2022-12-25T18:35:29.179Z,23.40
2022-12-25T18:40:32.462Z,19.60
2022-12-25T18:45:35.627Z,17.30
2022-12-25T18:50:40.734Z,22.30
2022-12-25T18:55:43.473Z,19.60
2022-12-25T19:00:46.433Z,19.70
2022-12-25T19:05:49.538Z,21.70
2022-12-25T19:10:52.430Z,17.80
2022-12-25T19:15:58.817Z,18.60
2022-12-25T19:21:04.264Z,18.30
2022-12-25T19:26:08.585Z,17.00
2022-12-25T19:31:11.835Z,17.00
2022-12-25T19:36:17.813Z,19.90
2022-12-25T19:41:20.640Z,19.50
2022-12-25T19:46:27.372Z,17.10
2022-12-25T19:51:33.388Z,18.40
2022-12-25T19:56:36.229Z,17.60
2022-12-25T20:01:39.456Z,21.40
2022-12-25T20:06:45.273Z,18.20
2022-12-25T20:11:48.807Z,21.20
2022-12-25T20:16:51.664Z,32.30
2022-12-25T20:21:54.788Z,22.50
2022-12-25T20:26:59.500Z,29.20
2022-12-25T20:32:02.877Z,16.00
2022-12-25T20:37:05.741Z,17.70
2022-12-25T20:42:08.579Z,17.30
2022-12-25T20:47:11.349Z,21.20
2022-12-25T20:52:14.126Z,22.20
2022-12-25T20:57:16.904Z,24.20
2022-12-25T21:02:34.620Z,21.70
2022-12-25T21:07:39.997Z,21.10
2022-12-25T21:12:44.428Z,21.30
2022-12-25T21:17:47.159Z,19.70
2022-12-25T21:22:49.891Z,21.50
2022-12-25T21:27:53.119Z,19.80
2022-12-25T21:33:17.005Z,19.40
2022-12-25T21:38:22.456Z,21.50
2022-12-25T21:43:25.788Z,19.00
2022-12-25T21:48:28.819Z,17.80
2022-12-25T21:53:31.596Z,20.50
2022-12-25T21:58:34.817Z,17.20
2022-12-25T22:03:38.016Z,15.70
2022-12-25T22:08:40.888Z,18.80
2022-12-25T22:14:02.451Z,17.00
2022-12-25T22:19:25.292Z,15.10
2022-12-25T22:24:29.144Z,14.90
2022-12-25T22:29:31.937Z,16.30
2022-12-25T22:34:34.812Z,13.00
2022-12-25T22:39:37.517Z,16.60
2022-12-25T22:44:40.297Z,16.30
2022-12-25T22:49:43.061Z,16.30
2022-12-25T22:54:45.927Z,13.40
2022-12-25T22:59:48.739Z,14.70
2022-12-25T23:04:51.580Z,14.90
2022-12-25T23:09:54.411Z,14.00
2022-12-25T23:14:57.967Z,14.40
2022-12-25T23:20:19.640Z,13.70
2022-12-25T23:25:41.269Z,15.10
2022-12-25T23:30:44.063Z,16.70
2022-12-25T23:35:46.787Z,20.00
2022-12-25T23:40:49.516Z,12.70
2022-12-25T23:45:52.415Z,26.30
2022-12-25T23:50:55.255Z,15.80
2022-12-25T23:55:58.824Z,14.30
